createdAt,value
2017-05-23T00:02:13.385Z,17.50
2017-05-23T00:04:40.571Z,17.60
2017-05-23T00:07:07.722Z,17.40
2017-05-23T00:09:34.926Z,17.50
2017-05-23T00:12:02.117Z,17.50
2017-05-23T00:14:29.403Z,17.40
2017-05-23T00:16:56.723Z,17.50
2017-05-23T00:19:24.131Z,17.60
2017-05-23T00:21:51.460Z,17.60
2017-05-23T00:24:18.686Z,17.60
2017-05-23T00:26:45.829Z,17.60
2017-05-23T00:29:13.179Z,17.60
2017-05-23T00:31:40.356Z,17.60
2017-05-23T00:34:07.573Z,17.60
2017-05-23T00:36:34.825Z,17.60
2017-05-23T00:39:03.167Z,17.60
2017-05-23T00:41:30.466Z,17.60
2017-05-23T00:43:58.672Z,17.50
2017-05-23T00:46:25.918Z,17.40
2017-05-23T00:48:53.073Z,17.40
2017-05-23T00:51:20.554Z,17.40
2017-05-23T00:53:47.738Z,17.40
2017-05-23T00:56:16.069Z,17.30
2017-05-23T00:58:43.247Z,17.30
2017-05-23T01:01:10.514Z,17.30
2017-05-23T01:03:37.681Z,17.20
2017-05-23T01:06:05.071Z,17.10
2017-05-23T01:08:32.251Z,17.00
2017-05-23T01:10:59.431Z,17.10
2017-05-23T01:13:27.166Z,17.10
2017-05-23T01:15:54.344Z,17.00
2017-05-23T01:18:21.549Z,16.90
2017-05-23T01:20:48.747Z,17.00
2017-05-23T01:23:15.911Z,16.90
2017-05-23T01:25:43.065Z,16.90
2017-05-23T01:28:10.442Z,16.90
2017-05-23T01:30:37.627Z,16.90
2017-05-23T01:33:04.807Z,17.00
2017-05-23T01:35:31.982Z,17.10
2017-05-23T01:37:59.210Z,17.10
2017-05-23T01:40:26.414Z,17.20
2017-05-23T01:42:54.148Z,17.20
2017-05-23T01:45:21.392Z,17.10
2017-05-23T01:47:48.563Z,17.10
2017-05-23T01:50:15.940Z,17.10
2017-05-23T01:52:43.133Z,17.10
2017-05-23T01:55:10.652Z,17.00
2017-05-23T01:57:37.963Z,16.90
2017-05-23T02:00:05.146Z,16.80
2017-05-23T02:02:32.355Z,16.80
2017-05-23T02:07:33.477Z,16.80
2017-05-23T02:10:00.740Z,17.00
2017-05-23T02:12:27.882Z,17.10
2017-05-23T02:14:55.143Z,17.10
2017-05-23T02:17:22.306Z,17.10
2017-05-23T02:19:49.474Z,17.20
2017-05-23T02:22:16.806Z,17.40
2017-05-23T02:24:49.369Z,17.50
2017-05-23T02:27:16.926Z,17.40
2017-05-23T02:29:44.112Z,17.50
2017-05-23T02:32:11.554Z,17.50
2017-05-23T02:34:38.816Z,17.60
2017-05-23T02:37:06.050Z,17.70
2017-05-23T02:39:33.240Z,17.70
2017-05-23T02:42:00.892Z,17.70
2017-05-23T02:44:28.053Z,17.70
2017-05-23T02:46:55.207Z,17.80
2017-05-23T02:49:22.520Z,17.80
2017-05-23T02:51:49.726Z,17.80
2017-05-23T02:54:16.894Z,17.80
2017-05-23T02:56:44.074Z,17.90
2017-05-23T02:59:12.209Z,17.80
2017-05-23T03:01:39.364Z,17.80
2017-05-23T03:04:06.609Z,17.80
2017-05-23T03:06:33.753Z,17.70
2017-05-23T03:09:00.917Z,17.50
2017-05-23T03:11:28.095Z,17.40
2017-05-23T03:13:55.320Z,17.20
2017-05-23T03:16:22.578Z,17.30
2017-05-23T03:18:49.751Z,17.50
2017-05-23T03:21:17.131Z,17.60
2017-05-23T03:23:44.397Z,17.70
2017-05-23T03:26:11.596Z,17.60
2017-05-23T03:28:38.808Z,17.60
2017-05-23T03:31:05.932Z,17.50
2017-05-23T03:33:33.116Z,17.40
2017-05-23T03:36:00.320Z,17.40
2017-05-23T03:38:27.515Z,17.40
2017-05-23T03:40:54.967Z,17.40
2017-05-23T03:43:22.324Z,17.40
2017-05-23T03:45:50.128Z,17.60
2017-05-23T03:48:17.308Z,17.80
2017-05-23T03:50:44.485Z,17.90
2017-05-23T03:53:11.692Z,17.90
2017-05-23T03:55:38.890Z,17.90
2017-05-23T03:58:06.046Z,17.60
2017-05-23T04:00:33.523Z,17.50
2017-05-23T04:03:00.718Z,17.70
2017-05-23T04:05:27.890Z,17.80
2017-05-23T04:07:55.091Z,17.80
2017-05-23T04:10:22.503Z,17.90
2017-05-23T04:12:49.643Z,18.20
2017-05-23T04:15:16.813Z,18.30
2017-05-23T04:17:44.030Z,18.40
2017-05-23T04:20:11.168Z,18.40
2017-05-23T04:22:38.320Z,18.50
2017-05-23T04:25:05.530Z,18.60
2017-05-23T04:27:32.720Z,18.90
2017-05-23T04:29:59.863Z,19.00
2017-05-23T04:32:27.030Z,19.10
2017-05-23T04:34:54.207Z,19.10
2017-05-23T04:37:21.362Z,19.10
2017-05-23T04:39:48.645Z,19.20
2017-05-23T04:42:15.783Z,19.20
2017-05-23T04:44:43.510Z,19.30
2017-05-23T04:47:10.698Z,19.40
2017-05-23T04:49:37.847Z,19.40
2017-05-23T04:52:05.041Z,19.30
2017-05-23T04:54:32.225Z,19.40
2017-05-23T04:56:59.390Z,19.40
2017-05-23T04:59:26.586Z,19.50
2017-05-23T05:01:53.771Z,19.40
2017-05-23T05:04:21.438Z,19.20
2017-05-23T05:06:48.767Z,19.10
2017-05-23T05:09:16.007Z,19.10
2017-05-23T05:11:43.152Z,19.10
2017-05-23T05:14:10.967Z,19.20
2017-05-23T05:16:38.130Z,19.30
2017-05-23T05:19:05.268Z,19.30
2017-05-23T05:21:32.982Z,19.20
2017-05-23T05:24:00.256Z,19.20
2017-05-23T05:26:27.419Z,19.40
2017-05-23T05:28:54.599Z,19.50
2017-05-23T05:31:21.790Z,19.50
2017-05-23T05:33:48.939Z,19.60
2017-05-23T05:36:16.113Z,19.60
2017-05-23T05:38:43.290Z,19.70
2017-05-23T05:41:10.459Z,19.80
2017-05-23T05:43:37.612Z,19.70
2017-05-23T05:46:04.879Z,19.90
2017-05-23T05:48:32.030Z,20.10
2017-05-23T05:50:59.183Z,20.20
2017-05-23T05:53:26.409Z,20.30
2017-05-23T05:55:53.546Z,20.40
2017-05-23T05:58:20.696Z,20.40
2017-05-23T06:00:48.009Z,20.40
2017-05-23T06:03:15.163Z,20.40
2017-05-23T06:05:42.362Z,20.30
2017-05-23T06:08:09.565Z,20.30
2017-05-23T06:10:36.874Z,20.20
2017-05-23T06:13:09.953Z,20.00
2017-05-23T06:15:37.494Z,20.10
2017-05-23T06:18:05.204Z,20.30
2017-05-23T06:20:32.382Z,20.40
2017-05-23T06:22:59.529Z,20.40
2017-05-23T06:25:26.846Z,20.60
2017-05-23T06:27:54.224Z,20.60
2017-05-23T06:30:21.909Z,20.50
2017-05-23T06:32:49.294Z,20.50
2017-05-23T06:35:16.777Z,20.50
2017-05-23T06:37:44.116Z,20.50
2017-05-23T06:40:11.340Z,20.40
2017-05-23T06:42:38.702Z,20.50
2017-05-23T06:45:06.235Z,20.50
2017-05-23T06:47:33.490Z,20.50
2017-05-23T06:50:00.678Z,20.50
2017-05-23T06:52:27.858Z,20.70
2017-05-23T06:54:55.696Z,20.90
2017-05-23T06:57:22.901Z,20.70
2017-05-23T06:59:50.066Z,20.70
2017-05-23T07:02:17.231Z,20.80
2017-05-23T07:04:58.967Z,21.00
2017-05-23T07:07:26.171Z,21.40
2017-05-23T07:09:53.332Z,21.70
2017-05-23T07:12:20.607Z,21.90
2017-05-23T07:14:47.760Z,21.90
2017-05-23T07:17:14.963Z,22.20
2017-05-23T07:19:42.278Z,22.70
2017-05-23T07:22:09.460Z,23.10
2017-05-23T07:24:36.650Z,23.30
2017-05-23T07:27:03.842Z,23.40
2017-05-23T07:29:31.045Z,23.90
2017-05-23T07:31:58.200Z,23.80
2017-05-23T07:34:25.392Z,24.10
2017-05-23T07:36:52.618Z,24.40
2017-05-23T07:39:19.789Z,24.40
2017-05-23T07:41:47.018Z,23.90
2017-05-23T07:44:14.235Z,23.70
2017-05-23T07:46:41.391Z,23.50
2017-05-23T07:49:08.636Z,23.40
2017-05-23T07:51:36.386Z,23.10
2017-05-23T07:54:03.578Z,23.30
2017-05-23T07:56:31.733Z,23.50
2017-05-23T07:58:59.001Z,23.80
2017-05-23T08:01:26.150Z,23.70
2017-05-23T08:03:53.345Z,24.20
2017-05-23T08:06:20.550Z,24.50
2017-05-23T08:08:47.877Z,24.20
2017-05-23T08:11:15.073Z,23.90
2017-05-23T08:13:42.879Z,24.10
2017-05-23T08:16:10.030Z,24.10
2017-05-23T08:18:37.279Z,24.10
2017-05-23T08:21:04.464Z,24.20
2017-05-23T08:23:31.836Z,24.10
2017-05-23T08:25:59.106Z,24.10
2017-05-23T08:28:26.294Z,24.30
2017-05-23T08:30:54.539Z,24.20
2017-05-23T08:33:21.767Z,24.30
2017-05-23T08:35:48.970Z,24.40
2017-05-23T08:38:16.185Z,24.40
2017-05-23T08:40:43.647Z,24.50
2017-05-23T08:43:36.191Z,24.40
2017-05-23T08:46:03.366Z,24.50
2017-05-23T08:48:30.517Z,24.50
2017-05-23T08:50:57.741Z,24.80
2017-05-23T08:53:24.912Z,24.80
2017-05-23T08:55:52.119Z,24.90
2017-05-23T08:58:19.344Z,24.90
2017-05-23T09:00:46.715Z,24.60
2017-05-23T09:03:14.650Z,24.30
2017-05-23T09:05:41.792Z,24.00
2017-05-23T09:08:08.980Z,24.00
2017-05-23T09:10:36.122Z,24.40
2017-05-23T09:13:03.292Z,24.70
2017-05-23T09:15:30.504Z,25.00
2017-05-23T09:17:57.667Z,25.20
2017-05-23T09:20:24.834Z,25.20
2017-05-23T09:22:52.250Z,25.20
2017-05-23T09:25:34.300Z,25.20
2017-05-23T09:28:01.499Z,25.00
2017-05-23T09:30:28.686Z,24.80
2017-05-23T09:32:56.274Z,24.80
2017-05-23T09:35:30.414Z,25.00
2017-05-23T09:37:57.788Z,25.20
2017-05-23T09:40:25.111Z,25.30
2017-05-23T09:42:52.316Z,25.40
2017-05-23T09:45:19.501Z,25.30
2017-05-23T09:47:46.680Z,25.60
2017-05-23T09:50:14.375Z,25.50
2017-05-23T09:52:41.561Z,25.70
2017-05-23T09:55:08.725Z,25.70
2017-05-23T09:57:35.903Z,25.90
2017-05-23T10:00:03.276Z,26.10
2017-05-23T10:02:30.458Z,26.70
2017-05-23T10:04:57.642Z,26.40
2017-05-23T10:07:24.862Z,26.70
2017-05-23T10:09:52.027Z,27.30
2017-05-23T10:12:26.363Z,28.40
2017-05-23T10:14:53.553Z,30.50
2017-05-23T10:17:20.982Z,31.70
2017-05-23T10:19:48.130Z,31.50
2017-05-23T10:22:15.286Z,34.80
2017-05-23T10:24:42.447Z,34.90
2017-05-23T10:27:09.603Z,32.90
2017-05-23T10:29:37.175Z,31.60
2017-05-23T10:32:04.660Z,31.00
2017-05-23T10:34:31.823Z,32.80
2017-05-23T10:36:58.983Z,36.70
2017-05-23T10:39:26.135Z,41.10
2017-05-23T10:41:53.322Z,43.80
2017-05-23T10:44:20.707Z,44.10
2017-05-23T10:46:47.854Z,46.30
2017-05-23T10:49:15.139Z,47.20
2017-05-23T10:51:42.283Z,48.50
2017-05-23T10:54:09.473Z,49.80
2017-05-23T10:56:36.755Z,49.50
2017-05-23T10:59:03.966Z,49.10
2017-05-23T11:01:31.839Z,49.60
2017-05-23T11:03:59.063Z,50.10
2017-05-23T11:06:26.219Z,50.10
2017-05-23T11:08:53.399Z,51.20
2017-05-23T11:11:20.683Z,51.00
2017-05-23T11:13:47.870Z,51.60
2017-05-23T11:16:15.057Z,52.80
2017-05-23T11:18:42.355Z,52.00
2017-05-23T11:21:09.516Z,51.00
2017-05-23T11:23:36.887Z,51.50
2017-05-23T11:26:04.071Z,51.00
2017-05-23T11:28:32.194Z,51.20
2017-05-23T11:30:59.446Z,51.50
2017-05-23T11:33:26.738Z,52.10
2017-05-23T11:35:53.890Z,51.20
2017-05-23T11:38:21.156Z,51.20
2017-05-23T11:40:48.349Z,51.20
2017-05-23T11:43:15.652Z,50.20
2017-05-23T11:45:42.863Z,50.40
2017-05-23T11:48:10.054Z,50.10
2017-05-23T11:50:37.257Z,51.00
2017-05-23T11:53:04.439Z,51.20
2017-05-23T11:55:31.634Z,52.30
2017-05-23T11:57:58.811Z,52.20
2017-05-23T12:00:26.006Z,52.10
2017-05-23T12:02:53.211Z,52.10
2017-05-23T12:05:20.419Z,52.40
2017-05-23T12:07:47.572Z,51.00
2017-05-23T12:10:14.919Z,50.70
2017-05-23T12:12:42.084Z,52.10
2017-05-23T12:15:09.248Z,53.30
2017-05-23T12:17:36.410Z,53.30
2017-05-23T12:20:03.556Z,51.70
2017-05-23T12:22:30.800Z,48.30
2017-05-23T12:24:58.092Z,49.40
2017-05-23T12:27:25.290Z,50.90
2017-05-23T12:29:53.069Z,51.10
2017-05-23T12:32:20.407Z,52.20
2017-05-23T12:34:47.589Z,51.10
2017-05-23T12:37:14.750Z,52.20
2017-05-23T12:39:47.132Z,50.70
2017-05-23T12:42:15.270Z,50.40
2017-05-23T12:44:42.423Z,44.80
2017-05-23T12:47:09.954Z,39.80
2017-05-23T12:49:37.229Z,36.80
2017-05-23T12:52:04.419Z,37.40
2017-05-23T12:54:31.829Z,42.50
2017-05-23T12:56:59.360Z,37.90
2017-05-23T12:59:27.279Z,34.50
2017-05-23T13:01:54.453Z,32.40
2017-05-23T13:04:21.754Z,31.10
2017-05-23T13:06:58.226Z,30.80
2017-05-23T13:10:01.126Z,30.80
2017-05-23T13:12:28.823Z,31.30
2017-05-23T13:14:56.390Z,30.70
2017-05-23T13:17:23.697Z,30.90
2017-05-23T13:20:36.680Z,31.00
2017-05-23T13:23:09.797Z,31.20
2017-05-23T13:25:42.321Z,31.00
2017-05-23T13:28:10.088Z,30.90
2017-05-23T13:30:50.487Z,30.50
2017-05-23T13:33:18.618Z,30.20
2017-05-23T13:35:47.983Z,30.30
2017-05-23T13:38:15.174Z,30.10
2017-05-23T13:40:42.550Z,29.90
2017-05-23T13:43:11.942Z,29.60
2017-05-23T13:45:39.089Z,29.30
2017-05-23T13:48:07.190Z,29.30
2017-05-23T13:50:35.210Z,29.10
2017-05-23T13:53:02.412Z,29.10
2017-05-23T13:55:29.565Z,28.80
2017-05-23T13:57:56.830Z,28.90
2017-05-23T14:00:23.983Z,28.70
2017-05-23T14:02:51.156Z,28.90
2017-05-23T14:05:19.079Z,29.10
2017-05-23T14:07:46.206Z,28.80
2017-05-23T14:10:13.401Z,28.90
2017-05-23T14:12:45.117Z,28.90
2017-05-23T14:15:12.303Z,28.90
2017-05-23T14:17:39.507Z,28.80
2017-05-23T14:20:06.708Z,28.70
2017-05-23T14:22:33.908Z,28.90
2017-05-23T14:25:01.285Z,29.00
2017-05-23T14:27:28.908Z,28.90
2017-05-23T14:29:57.301Z,29.10
2017-05-23T14:32:24.845Z,29.10
2017-05-23T14:34:59.294Z,29.00
2017-05-23T14:37:26.421Z,28.50
2017-05-23T14:39:53.786Z,28.10
2017-05-23T14:42:20.961Z,27.70
2017-05-23T14:44:48.301Z,27.90
2017-05-23T14:47:15.429Z,27.70
2017-05-23T14:49:43.551Z,27.80
2017-05-23T14:52:13.182Z,28.20
2017-05-23T14:54:40.383Z,28.50
2017-05-23T14:57:07.844Z,28.40
2017-05-23T14:59:34.974Z,28.20
2017-05-23T15:02:02.502Z,28.40
2017-05-23T15:04:30.373Z,28.40
2017-05-23T15:06:57.532Z,28.40
2017-05-23T15:09:34.607Z,28.00
2017-05-23T15:12:01.775Z,28.00
2017-05-23T15:14:29.045Z,27.80
2017-05-23T15:16:56.301Z,27.60
2017-05-23T15:19:30.452Z,27.70
2017-05-23T15:21:57.864Z,27.60
2017-05-23T15:24:25.310Z,29.80
2017-05-23T15:26:52.963Z,31.00
2017-05-23T15:29:20.165Z,31.50
2017-05-23T15:31:47.453Z,31.80
2017-05-23T15:34:14.651Z,32.80
2017-05-23T15:36:41.873Z,32.60
2017-05-23T15:39:09.108Z,30.80
2017-05-23T15:41:36.380Z,29.50
2017-05-23T15:44:03.938Z,28.40
2017-05-23T15:46:31.644Z,27.70
2017-05-23T15:48:59.458Z,27.30
2017-05-23T15:51:26.713Z,27.30
2017-05-23T15:53:53.892Z,27.20
2017-05-23T15:56:21.253Z,27.00
2017-05-23T15:58:48.756Z,26.90
2017-05-23T16:01:15.898Z,26.70
2017-05-23T16:03:43.069Z,26.40
2017-05-23T16:06:10.366Z,26.40
2017-05-23T16:08:37.533Z,26.30
2017-05-23T16:11:04.913Z,26.30
2017-05-23T16:13:32.111Z,26.40
2017-05-23T16:15:59.335Z,26.20
2017-05-23T16:18:26.682Z,26.00
2017-05-23T16:20:53.929Z,26.00
2017-05-23T16:23:21.118Z,25.80
2017-05-23T16:25:48.568Z,25.90
2017-05-23T16:28:15.779Z,25.60
2017-05-23T16:30:43.003Z,25.60
2017-05-23T16:33:10.390Z,25.50
2017-05-23T16:35:37.619Z,25.60
2017-05-23T16:38:05.327Z,25.40
2017-05-23T16:40:32.491Z,25.30
2017-05-23T16:42:59.802Z,25.20
2017-05-23T16:45:27.980Z,25.10
2017-05-23T16:47:55.294Z,24.90
2017-05-23T16:50:22.696Z,25.00
2017-05-23T16:52:49.974Z,24.80
2017-05-23T16:55:17.301Z,24.80
2017-05-23T16:57:44.547Z,24.70
2017-05-23T17:00:11.865Z,24.50
2017-05-23T17:02:39.259Z,24.60
2017-05-23T17:05:06.523Z,24.70
2017-05-23T17:07:33.961Z,24.50
2017-05-23T17:10:01.309Z,24.30
2017-05-23T17:12:28.765Z,24.20
2017-05-23T17:14:56.668Z,24.20
2017-05-23T17:17:23.839Z,24.20
2017-05-23T17:19:51.817Z,24.20
2017-05-23T17:22:18.961Z,24.20
2017-05-23T17:24:46.157Z,24.10
2017-05-23T17:27:13.501Z,24.20
2017-05-23T17:29:40.834Z,24.00
2017-05-23T17:32:07.992Z,24.00
2017-05-23T17:34:35.713Z,24.00
2017-05-23T17:37:02.199Z,24.00
2017-05-23T17:39:29.504Z,23.80
2017-05-23T17:41:56.709Z,23.70
2017-05-23T17:44:23.931Z,23.60
2017-05-23T17:46:56.787Z,23.70
2017-05-23T17:49:23.954Z,23.60
2017-05-23T17:51:51.204Z,23.60
2017-05-23T17:54:18.682Z,23.70
2017-05-23T17:56:45.851Z,23.50
2017-05-23T17:59:13.694Z,23.40
2017-05-23T18:01:40.887Z,23.20
2017-05-23T18:04:08.694Z,23.00
2017-05-23T18:06:35.940Z,23.00
2017-05-23T18:09:03.303Z,23.00
2017-05-23T18:11:31.088Z,22.90
2017-05-23T18:13:58.275Z,22.80
2017-05-23T18:16:25.487Z,22.60
2017-05-23T18:18:52.671Z,22.60
2017-05-23T18:21:19.925Z,22.50
2017-05-23T18:23:47.117Z,22.40
2017-05-23T18:26:14.297Z,22.20
2017-05-23T18:28:41.471Z,22.10
2017-05-23T18:31:08.766Z,22.10
2017-05-23T18:33:36.720Z,22.10
2017-05-23T18:36:08.492Z,22.20
2017-05-23T18:38:35.774Z,22.20
2017-05-23T18:41:03.939Z,22.10
2017-05-23T18:43:31.450Z,22.00
2017-05-23T18:45:58.794Z,21.90
2017-05-23T18:48:26.064Z,21.70
2017-05-23T18:50:53.353Z,21.40
2017-05-23T18:53:20.557Z,21.00
2017-05-23T18:55:47.761Z,20.90
2017-05-23T18:58:15.061Z,20.80
2017-05-23T19:00:42.967Z,20.60
2017-05-23T19:03:10.163Z,20.50
2017-05-23T19:05:37.366Z,20.40
2017-05-23T19:08:04.856Z,20.40
2017-05-23T19:10:32.134Z,20.30
2017-05-23T19:12:59.531Z,20.10
2017-05-23T19:15:26.959Z,20.10
2017-05-23T19:17:54.183Z,20.30
2017-05-23T19:20:21.381Z,20.20
2017-05-23T19:22:48.692Z,20.10
2017-05-23T19:25:15.900Z,20.10
2017-05-23T19:27:43.071Z,20.10
2017-05-23T19:30:10.464Z,19.90
2017-05-23T19:32:37.782Z,19.70
2017-05-23T19:35:05.018Z,19.70
2017-05-23T19:37:32.275Z,19.60
2017-05-23T19:39:59.475Z,19.60
2017-05-23T19:42:26.905Z,19.60
2017-05-23T19:44:54.143Z,19.70
2017-05-23T19:47:21.449Z,19.70
2017-05-23T19:49:48.649Z,19.80
2017-05-23T19:52:15.877Z,19.80
2017-05-23T19:54:43.069Z,20.00
2017-05-23T19:57:10.475Z,20.00
2017-05-23T19:59:37.659Z,20.00
2017-05-23T20:02:04.957Z,20.20
2017-05-23T20:04:33.514Z,20.20
2017-05-23T20:07:00.763Z,20.10
2017-05-23T20:09:27.958Z,20.20
2017-05-23T20:11:55.161Z,20.10
2017-05-23T20:14:22.452Z,20.10
2017-05-23T20:16:49.671Z,20.00
2017-05-23T20:19:17.636Z,20.00
2017-05-23T20:21:44.869Z,19.80
2017-05-23T20:24:12.130Z,19.70
2017-05-23T20:26:39.351Z,19.70
2017-05-23T20:29:07.631Z,19.60
2017-05-23T20:31:34.843Z,19.60
2017-05-23T20:34:02.254Z,19.50
2017-05-23T20:36:29.703Z,19.60
2017-05-23T20:38:57.050Z,19.40
2017-05-23T20:41:24.363Z,19.30
2017-05-23T20:43:51.568Z,19.30
2017-05-23T20:46:18.873Z,19.20
2017-05-23T20:48:46.181Z,19.10
2017-05-23T20:51:13.361Z,19.00
2017-05-23T20:53:40.756Z,19.10
2017-05-23T20:56:07.927Z,19.10
2017-05-23T20:58:35.114Z,19.00
2017-05-23T21:01:02.448Z,19.00
2017-05-23T21:03:29.618Z,19.10
2017-05-23T21:05:56.947Z,18.90
2017-05-23T21:08:24.165Z,19.00
2017-05-23T21:10:51.314Z,19.10
2017-05-23T21:13:18.503Z,19.10
2017-05-23T21:15:46.173Z,19.10
2017-05-23T21:18:13.352Z,19.10
2017-05-23T21:20:40.520Z,19.10
2017-05-23T21:23:07.736Z,19.00
2017-05-23T21:25:34.904Z,18.80
2017-05-23T21:28:02.078Z,18.90
2017-05-23T21:30:29.382Z,18.90
2017-05-23T21:32:57.112Z,18.90
2017-05-23T21:35:24.297Z,18.70
2017-05-23T21:37:51.485Z,18.60
2017-05-23T21:40:18.649Z,18.60
2017-05-23T21:42:45.866Z,18.60
2017-05-23T21:45:13.023Z,18.70
2017-05-23T21:47:40.313Z,19.00
2017-05-23T21:50:07.572Z,19.00
2017-05-23T21:52:34.728Z,18.90
2017-05-23T21:55:01.976Z,18.80
2017-05-23T21:57:29.257Z,18.90
2017-05-23T21:59:57.160Z,19.10
2017-05-23T22:02:24.338Z,18.90
2017-05-23T22:04:51.546Z,18.80
2017-05-23T22:07:18.868Z,18.90
2017-05-23T22:09:46.041Z,19.00
2017-05-23T22:12:13.223Z,19.00
2017-05-23T22:14:41.145Z,18.80
2017-05-23T22:17:08.446Z,18.80
2017-05-23T22:19:35.614Z,18.80
2017-05-23T22:22:03.112Z,18.80
2017-05-23T22:24:30.450Z,18.70
2017-05-23T22:27:04.535Z,18.50
2017-05-23T22:29:31.728Z,18.40
2017-05-23T22:31:59.011Z,18.50
2017-05-23T22:34:26.408Z,18.70
2017-05-23T22:36:53.638Z,18.40
2017-05-23T22:39:21.457Z,18.50
2017-05-23T22:41:48.669Z,18.50
2017-05-23T22:44:16.002Z,18.40
2017-05-23T22:46:43.288Z,18.30
2017-05-23T22:49:11.009Z,18.30
2017-05-23T22:51:38.507Z,18.20
2017-05-23T22:54:05.667Z,18.10
2017-05-23T22:56:32.867Z,18.10
2017-05-23T22:59:00.174Z,18.10
2017-05-23T23:01:27.401Z,18.20
2017-05-23T23:03:54.572Z,18.40
2017-05-23T23:06:21.766Z,18.50
2017-05-23T23:08:48.969Z,18.50
2017-05-23T23:11:16.139Z,18.30
2017-05-23T23:13:50.344Z,17.90
2017-05-23T23:16:17.566Z,17.80
2017-05-23T23:18:44.878Z,17.80
2017-05-23T23:21:12.039Z,18.00
2017-05-23T23:23:39.234Z,18.20
2017-05-23T23:26:06.611Z,18.10
2017-05-23T23:28:33.762Z,18.20
2017-05-23T23:31:00.935Z,18.20
2017-05-23T23:33:28.091Z,18.20
2017-05-23T23:35:55.418Z,18.20
2017-05-23T23:38:22.669Z,18.00
2017-05-23T23:40:49.849Z,17.90
2017-05-23T23:43:17.075Z,17.90
2017-05-23T23:45:44.693Z,17.90
2017-05-23T23:48:11.865Z,17.70
2017-05-23T23:50:46.123Z,17.60
2017-05-23T23:53:13.327Z,17.50
2017-05-23T23:55:40.590Z,17.50
2017-05-23T23:58:07.833Z,17.60
